Rechercher aéroport 
image banner adimage banner adimage banner ad
image banner ad

CL55 - Sce Serrano Substation

Situé à Orange, United States

ICAO - CL55, IATA -

Données fournies par Airmate  

Information générale

Coordonnées: N33°49'42" W117°47'26"
Élévation : 697 feet MSL.
Variation magnétique : 14° East
Voir autres Aéroports à California

Données opérationnelles

Special qualification required
Heure actuelle UTC:
Heure actuelle locale:
Météo à : KFUL - Fullerton Muni ( 18 km )
METAR: KFUL 291953Z VRB05KT 10SM CLR 32/17 A2987 RMK AO2 SLP115 T03170172
Voir NOTAMs / SUP AIP / TFR affectant cet aéroport [VIEW]
Fréquences de communication: [VIEW]

Pistes:

Coordonnées de l'aéroport

Adresse: Orange United States

Vue satellite de CL55